sensor_id;sensor_type;location;lat;lon;timestamp;P1;durP1;ratioP1;P2;durP2;ratioP2
78027;SDS011;67235;45.638;11.714;2023-02-22T00:01:31;155.50;;;63.28;;
78027;SDS011;67235;45.638;11.714;2023-02-22T00:04:05;150.65;;;59.80;;
78027;SDS011;67235;45.638;11.714;2023-02-22T00:06:40;151.48;;;60.88;;
78027;SDS011;67235;45.638;11.714;2023-02-22T00:09:07;145.13;;;59.53;;
78027;SDS011;67235;45.638;11.714;2023-02-22T00:11:34;149.00;;;60.33;;
78027;SDS011;67235;45.638;11.714;2023-02-22T00:14:04;141.48;;;58.53;;
78027;SDS011;67235;45.638;11.714;2023-02-22T00:16:31;133.32;;;55.80;;
78027;SDS011;67235;45.638;11.714;2023-02-22T00:18:58;143.00;;;57.95;;
78027;SDS011;67235;45.638;11.714;2023-02-22T00:21:29;158.82;;;64.68;;
78027;SDS011;67235;45.638;11.714;2023-02-22T00:23:56;158.63;;;64.20;;
78027;SDS011;67235;45.638;11.714;2023-02-22T00:26:25;154.15;;;63.60;;
78027;SDS011;67235;45.638;11.714;2023-02-22T00:28:52;162.70;;;63.42;;
78027;SDS011;67235;45.638;11.714;2023-02-22T00:31:19;164.75;;;62.78;;
78027;SDS011;67235;45.638;11.714;2023-02-22T00:33:46;142.43;;;58.50;;
78027;SDS011;67235;45.638;11.714;2023-02-22T00:36:15;143.60;;;57.30;;
78027;SDS011;67235;45.638;11.714;2023-02-22T00:38:44;142.20;;;57.40;;
78027;SDS011;67235;45.638;11.714;2023-02-22T00:41:15;130.52;;;58.08;;
78027;SDS011;67235;45.638;11.714;2023-02-22T00:43:42;129.20;;;54.92;;
78027;SDS011;67235;45.638;11.714;2023-02-22T00:46:14;134.07;;;54.17;;
78027;SDS011;67235;45.638;11.714;2023-02-22T00:48:46;135.40;;;54.33;;
78027;SDS011;67235;45.638;11.714;2023-02-22T00:51:14;140.02;;;55.85;;
78027;SDS011;67235;45.638;11.714;2023-02-22T00:53:42;143.38;;;58.63;;
78027;SDS011;67235;45.638;11.714;2023-02-22T00:56:07;156.88;;;63.40;;
78027;SDS011;67235;45.638;11.714;2023-02-22T00:58:33;164.77;;;63.23;;
78027;SDS011;67235;45.638;11.714;2023-02-22T01:01:00;148.38;;;61.38;;
78027;SDS011;67235;45.638;11.714;2023-02-22T01:03:26;163.57;;;64.25;;
78027;SDS011;67235;45.638;11.714;2023-02-22T01:05:56;147.70;;;60.00;;
78027;SDS011;67235;45.638;11.714;2023-02-22T01:08:22;154.63;;;62.60;;
78027;SDS011;67235;45.638;11.714;2023-02-22T01:10:49;162.07;;;64.90;;
78027;SDS011;67235;45.638;11.714;2023-02-22T01:13:16;154.25;;;62.53;;
78027;SDS011;67235;45.638;11.714;2023-02-22T01:15:44;153.02;;;62.47;;
78027;SDS011;67235;45.638;11.714;2023-02-22T01:18:11;156.50;;;61.50;;
78027;SDS011;67235;45.638;11.714;2023-02-22T01:20:37;156.15;;;63.58;;
78027;SDS011;67235;45.638;11.714;2023-02-22T01:23:07;171.80;;;67.38;;
78027;SDS011;67235;45.638;11.714;2023-02-22T01:25:43;154.05;;;64.00;;
78027;SDS011;67235;45.638;11.714;2023-02-22T01:28:13;169.63;;;68.68;;
78027;SDS011;67235;45.638;11.714;2023-02-22T01:30:39;151.63;;;62.07;;
78027;SDS011;67235;45.638;11.714;2023-02-22T01:33:06;151.57;;;61.10;;
78027;SDS011;67235;45.638;11.714;2023-02-22T01:35:37;150.10;;;59.83;;
78027;SDS011;67235;45.638;11.714;2023-02-22T01:38:08;150.50;;;62.00;;
78027;SDS011;67235;45.638;11.714;2023-02-22T01:40:48;140.80;;;61.78;;
78027;SDS011;67235;45.638;11.714;2023-02-22T01:43:19;142.37;;;59.83;;
78027;SDS011;67235;45.638;11.714;2023-02-22T01:45:54;146.48;;;58.25;;
78027;SDS011;67235;45.638;11.714;2023-02-22T01:48:58;152.07;;;63.63;;
78027;SDS011;67235;45.638;11.714;2023-02-22T01:51:42;155.40;;;62.85;;
78027;SDS011;67235;45.638;11.714;2023-02-22T01:54:39;156.35;;;64.72;;
78027;SDS011;67235;45.638;11.714;2023-02-22T01:57:13;146.07;;;62.33;;
78027;SDS011;67235;45.638;11.714;2023-02-22T02:00:10;149.85;;;62.58;;
78027;SDS011;67235;45.638;11.714;2023-02-22T02:02:44;159.90;;;64.85;;
78027;SDS011;67235;45.638;11.714;2023-02-22T02:05:16;152.77;;;63.47;;
78027;SDS011;67235;45.638;11.714;2023-02-22T02:07:43;168.38;;;68.78;;
78027;SDS011;67235;45.638;11.714;2023-02-22T02:10:13;163.80;;;68.37;;
78027;SDS011;67235;45.638;11.714;2023-02-22T02:12:47;164.07;;;67.15;;
78027;SDS011;67235;45.638;11.714;2023-02-22T02:15:26;174.88;;;70.40;;
78027;SDS011;67235;45.638;11.714;2023-02-22T02:18:07;172.23;;;67.32;;
78027;SDS011;67235;45.638;11.714;2023-02-22T02:35:58;162.07;;;65.50;;
78027;SDS011;67235;45.638;11.714;2023-02-22T02:38:42;160.50;;;63.47;;
78027;SDS011;67235;45.638;11.714;2023-02-22T02:41:33;175.52;;;67.03;;
78027;SDS011;67235;45.638;11.714;2023-02-22T02:47:03;155.35;;;63.53;;
78027;SDS011;67235;45.638;11.714;2023-02-22T02:52:41;152.43;;;63.87;;
78027;SDS011;67235;45.638;11.714;2023-02-22T02:55:10;158.77;;;65.80;;
78027;SDS011;67235;45.638;11.714;2023-02-22T02:57:37;161.88;;;66.45;;
78027;SDS011;67235;45.638;11.714;2023-02-22T03:00:04;156.27;;;64.28;;
78027;SDS011;67235;45.638;11.714;2023-02-22T03:09:14;163.93;;;66.38;;
78027;SDS011;67235;45.638;11.714;2023-02-22T03:11:47;169.60;;;69.70;;
78027;SDS011;67235;45.638;11.714;2023-02-22T03:17:35;167.63;;;69.38;;
78027;SDS011;67235;45.638;11.714;2023-02-22T03:23:55;183.38;;;69.32;;
78027;SDS011;67235;45.638;11.714;2023-02-22T03:26:36;160.82;;;64.57;;
78027;SDS011;67235;45.638;11.714;2023-02-22T03:29:17;160.80;;;64.88;;
78027;SDS011;67235;45.638;11.714;2023-02-22T03:32:22;161.52;;;63.25;;
78027;SDS011;67235;45.638;11.714;2023-02-22T03:35:16;165.80;;;69.67;;
78027;SDS011;67235;45.638;11.714;2023-02-22T03:40:36;140.38;;;60.00;;
78027;SDS011;67235;45.638;11.714;2023-02-22T03:43:13;134.82;;;57.70;;
78027;SDS011;67235;45.638;11.714;2023-02-22T03:46:00;137.43;;;59.78;;
78027;SDS011;67235;45.638;11.714;2023-02-22T03:48:52;137.43;;;59.47;;
78027;SDS011;67235;45.638;11.714;2023-02-22T03:51:21;144.65;;;59.40;;
78027;SDS011;67235;45.638;11.714;2023-02-22T03:53:51;138.43;;;59.47;;
78027;SDS011;67235;45.638;11.714;2023-02-22T03:56:25;117.45;;;52.78;;
78027;SDS011;67235;45.638;11.714;2023-02-22T03:59:07;115.90;;;54.10;;
78027;SDS011;67235;45.638;11.714;2023-02-22T04:01:35;129.53;;;55.50;;
78027;SDS011;67235;45.638;11.714;2023-02-22T04:04:02;121.10;;;56.35;;
78027;SDS011;67235;45.638;11.714;2023-02-22T04:06:32;134.88;;;57.25;;
78027;SDS011;67235;45.638;11.714;2023-02-22T04:08:59;129.23;;;56.05;;
78027;SDS011;67235;45.638;11.714;2023-02-22T04:11:26;117.00;;;52.33;;
78027;SDS011;67235;45.638;11.714;2023-02-22T04:14:01;113.17;;;52.00;;
78027;SDS011;67235;45.638;11.714;2023-02-22T04:16:30;113.10;;;50.95;;
78027;SDS011;67235;45.638;11.714;2023-02-22T04:18:56;124.25;;;53.35;;
78027;SDS011;67235;45.638;11.714;2023-02-22T04:21:23;116.07;;;53.42;;
78027;SDS011;67235;45.638;11.714;2023-02-22T04:24:05;108.85;;;49.45;;
78027;SDS011;67235;45.638;11.714;2023-02-22T04:26:35;117.47;;;53.37;;
78027;SDS011;67235;45.638;11.714;2023-02-22T04:29:11;113.15;;;51.97;;
78027;SDS011;67235;45.638;11.714;2023-02-22T04:31:38;107.97;;;51.78;;
78027;SDS011;67235;45.638;11.714;2023-02-22T04:36:32;97.67;;;47.10;;
78027;SDS011;67235;45.638;11.714;2023-02-22T04:38:58;97.77;;;49.03;;
78027;SDS011;67235;45.638;11.714;2023-02-22T04:41:35;106.95;;;50.90;;
78027;SDS011;67235;45.638;11.714;2023-02-22T04:44:01;124.15;;;56.28;;
78027;SDS011;67235;45.638;11.714;2023-02-22T04:46:29;131.50;;;56.22;;
78027;SDS011;67235;45.638;11.714;2023-02-22T04:48:56;142.30;;;60.28;;
78027;SDS011;67235;45.638;11.714;2023-02-22T04:51:23;133.00;;;59.30;;
78027;SDS011;67235;45.638;11.714;2023-02-22T04:53:53;138.52;;;57.03;;
78027;SDS011;67235;45.638;11.714;2023-02-22T04:56:19;147.32;;;61.63;;
78027;SDS011;67235;45.638;11.714;2023-02-22T04:58:45;128.50;;;55.00;;
78027;SDS011;67235;45.638;11.714;2023-02-22T05:01:13;146.27;;;60.40;;
78027;SDS011;67235;45.638;11.714;2023-02-22T05:03:42;132.90;;;56.53;;
78027;SDS011;67235;45.638;11.714;2023-02-22T05:06:10;124.55;;;55.08;;
78027;SDS011;67235;45.638;11.714;2023-02-22T05:08:39;125.20;;;55.95;;
78027;SDS011;67235;45.638;11.714;2023-02-22T05:11:15;135.77;;;56.60;;
78027;SDS011;67235;45.638;11.714;2023-02-22T05:13:44;124.70;;;54.90;;
78027;SDS011;67235;45.638;11.714;2023-02-22T05:16:34;118.03;;;52.23;;
78027;SDS011;67235;45.638;11.714;2023-02-22T05:19:01;122.45;;;53.35;;
78027;SDS011;67235;45.638;11.714;2023-02-22T05:21:28;117.57;;;51.67;;
78027;SDS011;67235;45.638;11.714;2023-02-22T05:23:57;122.25;;;52.83;;
78027;SDS011;67235;45.638;11.714;2023-02-22T05:26:27;137.65;;;56.33;;
78027;SDS011;67235;45.638;11.714;2023-02-22T05:28:54;139.17;;;58.93;;
78027;SDS011;67235;45.638;11.714;2023-02-22T05:31:23;127.80;;;56.40;;
78027;SDS011;67235;45.638;11.714;2023-02-22T05:33:51;133.00;;;56.53;;
78027;SDS011;67235;45.638;11.714;2023-02-22T05:36:16;126.63;;;54.08;;
78027;SDS011;67235;45.638;11.714;2023-02-22T05:38:45;128.60;;;56.53;;
78027;SDS011;67235;45.638;11.714;2023-02-22T05:41:13;119.43;;;53.03;;
78027;SDS011;67235;45.638;11.714;2023-02-22T05:43:45;131.80;;;56.95;;
78027;SDS011;67235;45.638;11.714;2023-02-22T05:46:13;119.93;;;52.72;;
78027;SDS011;67235;45.638;11.714;2023-02-22T05:48:41;117.80;;;54.25;;
78027;SDS011;67235;45.638;11.714;2023-02-22T05:51:11;118.20;;;52.70;;
78027;SDS011;67235;45.638;11.714;2023-02-22T05:53:37;128.40;;;54.13;;
78027;SDS011;67235;45.638;11.714;2023-02-22T05:56:04;116.28;;;53.97;;
78027;SDS011;67235;45.638;11.714;2023-02-22T05:58:31;129.77;;;55.92;;
78027;SDS011;67235;45.638;11.714;2023-02-22T06:01:05;130.77;;;57.55;;
78027;SDS011;67235;45.638;11.714;2023-02-22T06:03:36;127.10;;;56.40;;
78027;SDS011;67235;45.638;11.714;2023-02-22T06:06:09;136.18;;;57.65;;
78027;SDS011;67235;45.638;11.714;2023-02-22T06:08:35;123.72;;;52.10;;
78027;SDS011;67235;45.638;11.714;2023-02-22T06:13:28;135.47;;;57.23;;
78027;SDS011;67235;45.638;11.714;2023-02-22T06:15:57;127.97;;;57.33;;
78027;SDS011;67235;45.638;11.714;2023-02-22T06:18:24;137.15;;;58.40;;
78027;SDS011;67235;45.638;11.714;2023-02-22T06:20:58;141.25;;;59.38;;
78027;SDS011;67235;45.638;11.714;2023-02-22T06:23:40;136.43;;;58.88;;
78027;SDS011;67235;45.638;11.714;2023-02-22T06:26:06;131.80;;;55.70;;
78027;SDS011;67235;45.638;11.714;2023-02-22T06:28:35;121.67;;;52.70;;
78027;SDS011;67235;45.638;11.714;2023-02-22T06:31:02;120.53;;;51.92;;
78027;SDS011;67235;45.638;11.714;2023-02-22T06:33:33;119.32;;;54.10;;
78027;SDS011;67235;45.638;11.714;2023-02-22T06:36:03;118.85;;;52.13;;
78027;SDS011;67235;45.638;11.714;2023-02-22T06:38:38;136.40;;;57.67;;
78027;SDS011;67235;45.638;11.714;2023-02-22T06:41:07;132.90;;;55.97;;
78027;SDS011;67235;45.638;11.714;2023-02-22T06:43:35;122.13;;;55.17;;
78027;SDS011;67235;45.638;11.714;2023-02-22T06:46:08;117.93;;;52.75;;
78027;SDS011;67235;45.638;11.714;2023-02-22T06:48:37;118.20;;;52.53;;
78027;SDS011;67235;45.638;11.714;2023-02-22T06:51:08;127.40;;;55.15;;
78027;SDS011;67235;45.638;11.714;2023-02-22T06:53:39;130.93;;;55.43;;
78027;SDS011;67235;45.638;11.714;2023-02-22T06:56:05;132.40;;;56.28;;
78027;SDS011;67235;45.638;11.714;2023-02-22T06:58:31;130.50;;;57.92;;
78027;SDS011;67235;45.638;11.714;2023-02-22T07:00:58;135.55;;;58.97;;
78027;SDS011;67235;45.638;11.714;2023-02-22T07:03:27;134.50;;;58.80;;
78027;SDS011;67235;45.638;11.714;2023-02-22T07:05:53;130.45;;;58.90;;
78027;SDS011;67235;45.638;11.714;2023-02-22T07:08:31;133.38;;;58.25;;
78027;SDS011;67235;45.638;11.714;2023-02-22T07:11:03;126.38;;;58.95;;
78027;SDS011;67235;45.638;11.714;2023-02-22T07:13:42;128.10;;;57.10;;
78027;SDS011;67235;45.638;11.714;2023-02-22T07:19:32;129.45;;;57.03;;
78027;SDS011;67235;45.638;11.714;2023-02-22T07:22:04;129.57;;;58.03;;
78027;SDS011;67235;45.638;11.714;2023-02-22T07:24:58;144.43;;;59.90;;
78027;SDS011;67235;45.638;11.714;2023-02-22T07:27:25;132.82;;;60.03;;
78027;SDS011;67235;45.638;11.714;2023-02-22T07:29:51;133.48;;;61.85;;
78027;SDS011;67235;45.638;11.714;2023-02-22T07:32:18;150.88;;;64.70;;
78027;SDS011;67235;45.638;11.714;2023-02-22T07:35:00;145.60;;;64.50;;
78027;SDS011;67235;45.638;11.714;2023-02-22T07:37:51;170.97;;;72.47;;
78027;SDS011;67235;45.638;11.714;2023-02-22T07:41:05;176.45;;;75.80;;
78027;SDS011;67235;45.638;11.714;2023-02-22T07:43:32;186.23;;;81.55;;
78027;SDS011;67235;45.638;11.714;2023-02-22T07:45:59;180.93;;;80.22;;
78027;SDS011;67235;45.638;11.714;2023-02-22T07:48:34;169.77;;;77.85;;
78027;SDS011;67235;45.638;11.714;2023-02-22T07:51:01;178.17;;;78.00;;
78027;SDS011;67235;45.638;11.714;2023-02-22T07:53:31;173.73;;;76.32;;
78027;SDS011;67235;45.638;11.714;2023-02-22T07:55:59;170.02;;;76.22;;
78027;SDS011;67235;45.638;11.714;2023-02-22T07:58:28;174.77;;;77.63;;
78027;SDS011;67235;45.638;11.714;2023-02-22T08:00:55;146.05;;;67.47;;
78027;SDS011;67235;45.638;11.714;2023-02-22T08:03:23;140.03;;;63.30;;
78027;SDS011;67235;45.638;11.714;2023-02-22T08:05:54;145.25;;;64.93;;
78027;SDS011;67235;45.638;11.714;2023-02-22T08:08:35;152.73;;;66.55;;
78027;SDS011;67235;45.638;11.714;2023-02-22T08:11:02;147.23;;;64.85;;
78027;SDS011;67235;45.638;11.714;2023-02-22T08:13:30;148.30;;;65.50;;
78027;SDS011;67235;45.638;11.714;2023-02-22T08:15:57;148.20;;;66.20;;
78027;SDS011;67235;45.638;11.714;2023-02-22T08:18:23;156.57;;;68.03;;
78027;SDS011;67235;45.638;11.714;2023-02-22T08:20:50;152.73;;;65.35;;
78027;SDS011;67235;45.638;11.714;2023-02-22T08:23:20;154.55;;;67.32;;
78027;SDS011;67235;45.638;11.714;2023-02-22T08:25:53;142.75;;;64.15;;
78027;SDS011;67235;45.638;11.714;2023-02-22T08:28:33;153.10;;;67.83;;
78027;SDS011;67235;45.638;11.714;2023-02-22T08:31:08;156.05;;;65.53;;
78027;SDS011;67235;45.638;11.714;2023-02-22T08:33:34;163.52;;;67.25;;
78027;SDS011;67235;45.638;11.714;2023-02-22T08:36:00;163.98;;;68.38;;
78027;SDS011;67235;45.638;11.714;2023-02-22T08:38:36;156.33;;;67.80;;
78027;SDS011;67235;45.638;11.714;2023-02-22T08:41:03;159.20;;;72.35;;
78027;SDS011;67235;45.638;11.714;2023-02-22T08:43:44;157.02;;;69.97;;
78027;SDS011;67235;45.638;11.714;2023-02-22T08:46:10;162.80;;;71.97;;
78027;SDS011;67235;45.638;11.714;2023-02-22T08:48:35;166.37;;;78.20;;
78027;SDS011;67235;45.638;11.714;2023-02-22T08:51:02;168.15;;;75.38;;
78027;SDS011;67235;45.638;11.714;2023-02-22T08:53:48;163.85;;;75.03;;
78027;SDS011;67235;45.638;11.714;2023-02-22T08:56:20;167.23;;;75.75;;
78027;SDS011;67235;45.638;11.714;2023-02-22T08:58:47;168.60;;;73.10;;
78027;SDS011;67235;45.638;11.714;2023-02-22T09:01:25;160.15;;;73.13;;
78027;SDS011;67235;45.638;11.714;2023-02-22T09:03:55;147.02;;;67.72;;
78027;SDS011;67235;45.638;11.714;2023-02-22T09:06:22;141.02;;;62.88;;
78027;SDS011;67235;45.638;11.714;2023-02-22T09:08:50;133.27;;;58.83;;
78027;SDS011;67235;45.638;11.714;2023-02-22T09:11:20;128.10;;;57.10;;
78027;SDS011;67235;45.638;11.714;2023-02-22T09:13:48;122.13;;;55.92;;
78027;SDS011;67235;45.638;11.714;2023-02-22T09:16:32;123.90;;;58.10;;
78027;SDS011;67235;45.638;11.714;2023-02-22T09:19:06;104.85;;;47.40;;
78027;SDS011;67235;45.638;11.714;2023-02-22T09:21:56;109.70;;;51.35;;
78027;SDS011;67235;45.638;11.714;2023-02-22T09:24:51;110.67;;;51.03;;
78027;SDS011;67235;45.638;11.714;2023-02-22T09:27:18;114.82;;;54.80;;
78027;SDS011;67235;45.638;11.714;2023-02-22T09:29:48;119.07;;;55.15;;
78027;SDS011;67235;45.638;11.714;2023-02-22T09:32:19;113.00;;;53.30;;
78027;SDS011;67235;45.638;11.714;2023-02-22T09:34:55;110.75;;;53.85;;
78027;SDS011;67235;45.638;11.714;2023-02-22T09:37:21;103.77;;;52.30;;
78027;SDS011;67235;45.638;11.714;2023-02-22T09:39:58;90.18;;;45.15;;
78027;SDS011;67235;45.638;11.714;2023-02-22T09:42:34;82.43;;;44.40;;
78027;SDS011;67235;45.638;11.714;2023-02-22T09:48:02;80.53;;;42.58;;
78027;SDS011;67235;45.638;11.714;2023-02-22T09:50:39;88.37;;;46.03;;
78027;SDS011;67235;45.638;11.714;2023-02-22T09:56:05;66.45;;;37.22;;
78027;SDS011;67235;45.638;11.714;2023-02-22T09:58:43;72.07;;;40.22;;
78027;SDS011;67235;45.638;11.714;2023-02-22T10:07:33;76.15;;;41.35;;
78027;SDS011;67235;45.638;11.714;2023-02-22T10:09:42;72.65;;;38.50;;
78027;SDS011;67235;45.638;11.714;2023-02-22T10:15:04;67.72;;;38.03;;
78027;SDS011;67235;45.638;11.714;2023-02-22T10:17:32;72.80;;;40.03;;
78027;SDS011;67235;45.638;11.714;2023-02-22T10:24:05;77.63;;;41.95;;
78027;SDS011;67235;45.638;11.714;2023-02-22T10:26:56;73.95;;;40.92;;
78027;SDS011;67235;45.638;11.714;2023-02-22T10:30:14;87.95;;;54.15;;
78027;SDS011;67235;45.638;11.714;2023-02-22T10:33:00;77.83;;;41.40;;
78027;SDS011;67235;45.638;11.714;2023-02-22T10:35:34;75.03;;;39.38;;
78027;SDS011;67235;45.638;11.714;2023-02-22T10:38:10;72.50;;;39.00;;
78027;SDS011;67235;45.638;11.714;2023-02-22T10:40:49;71.88;;;37.15;;
78027;SDS011;67235;45.638;11.714;2023-02-22T10:43:26;79.95;;;41.30;;
78027;SDS011;67235;45.638;11.714;2023-02-22T10:45:53;76.40;;;37.80;;
78027;SDS011;67235;45.638;11.714;2023-02-22T10:48:22;77.00;;;39.10;;
78027;SDS011;67235;45.638;11.714;2023-02-22T10:50:51;81.90;;;41.25;;
78027;SDS011;67235;45.638;11.714;2023-02-22T10:53:29;83.65;;;41.13;;
78027;SDS011;67235;45.638;11.714;2023-02-22T10:59:06;79.87;;;39.63;;
78027;SDS011;67235;45.638;11.714;2023-02-22T11:01:35;79.95;;;40.25;;
78027;SDS011;67235;45.638;11.714;2023-02-22T11:04:20;81.38;;;40.25;;
78027;SDS011;67235;45.638;11.714;2023-02-22T11:06:48;81.32;;;39.53;;
78027;SDS011;67235;45.638;11.714;2023-02-22T11:09:41;79.22;;;37.60;;
78027;SDS011;67235;45.638;11.714;2023-02-22T11:17:53;85.85;;;42.10;;
78027;SDS011;67235;45.638;11.714;2023-02-22T11:20:37;85.10;;;40.75;;
78027;SDS011;67235;45.638;11.714;2023-02-22T11:28:41;87.10;;;39.70;;
78027;SDS011;67235;45.638;11.714;2023-02-22T11:31:16;89.90;;;41.75;;
78027;SDS011;67235;45.638;11.714;2023-02-22T11:34:34;84.50;;;40.47;;
78027;SDS011;67235;45.638;11.714;2023-02-22T11:40:25;72.67;;;35.13;;
78027;SDS011;67235;45.638;11.714;2023-02-22T11:43:35;81.07;;;40.63;;
78027;SDS011;67235;45.638;11.714;2023-02-22T11:46:15;79.05;;;41.08;;
78027;SDS011;67235;45.638;11.714;2023-02-22T11:49:11;90.32;;;43.45;;
78027;SDS011;67235;45.638;11.714;2023-02-22T12:13:17;81.22;;;39.92;;
78027;SDS011;67235;45.638;11.714;2023-02-22T12:19:46;81.00;;;37.92;;
78027;SDS011;67235;45.638;11.714;2023-02-22T12:27:56;73.30;;;34.00;;
78027;SDS011;67235;45.638;11.714;2023-02-22T12:31:16;67.30;;;34.05;;
78027;SDS011;67235;45.638;11.714;2023-02-22T12:34:32;74.85;;;36.95;;
78027;SDS011;67235;45.638;11.714;2023-02-22T12:43:47;79.30;;;38.63;;
78027;SDS011;67235;45.638;11.714;2023-02-22T12:46:54;80.18;;;38.78;;
78027;SDS011;67235;45.638;11.714;2023-02-22T13:05:23;83.80;;;38.90;;
78027;SDS011;67235;45.638;11.714;2023-02-22T13:11:10;83.77;;;38.97;;
78027;SDS011;67235;45.638;11.714;2023-02-22T13:17:16;88.07;;;39.97;;
78027;SDS011;67235;45.638;11.714;2023-02-22T13:20:12;89.43;;;40.90;;
78027;SDS011;67235;45.638;11.714;2023-02-22T13:43:36;91.10;;;41.15;;
78027;SDS011;67235;45.638;11.714;2023-02-22T13:53:20;88.20;;;40.67;;
78027;SDS011;67235;45.638;11.714;2023-02-22T13:56:47;87.73;;;39.57;;
78027;SDS011;67235;45.638;11.714;2023-02-22T14:04:58;81.25;;;39.58;;
78027;SDS011;67235;45.638;11.714;2023-02-22T14:31:27;97.95;;;43.60;;
78027;SDS011;67235;45.638;11.714;2023-02-22T14:36:43;102.63;;;46.40;;
78027;SDS011;67235;45.638;11.714;2023-02-22T14:42:42;97.73;;;42.40;;
78027;SDS011;67235;45.638;11.714;2023-02-22T14:48:08;96.25;;;43.88;;
78027;SDS011;67235;45.638;11.714;2023-02-22T14:50:53;107.00;;;46.80;;
78027;SDS011;67235;45.638;11.714;2023-02-22T14:58:57;103.88;;;43.70;;
78027;SDS011;67235;45.638;11.714;2023-02-22T15:02:05;105.53;;;45.42;;
78027;SDS011;67235;45.638;11.714;2023-02-22T15:04:39;98.45;;;43.67;;
78027;SDS011;67235;45.638;11.714;2023-02-22T15:07:25;105.57;;;45.63;;
78027;SDS011;67235;45.638;11.714;2023-02-22T15:10:12;107.60;;;45.57;;
78027;SDS011;67235;45.638;11.714;2023-02-22T15:12:53;112.30;;;47.70;;
78027;SDS011;67235;45.638;11.714;2023-02-22T15:15:39;110.07;;;48.35;;
78027;SDS011;67235;45.638;11.714;2023-02-22T15:18:16;110.30;;;47.58;;
78027;SDS011;67235;45.638;11.714;2023-02-22T15:20:46;110.65;;;48.42;;
78027;SDS011;67235;45.638;11.714;2023-02-22T15:23:19;108.47;;;47.83;;
78027;SDS011;67235;45.638;11.714;2023-02-22T15:25:54;110.85;;;47.53;;
78027;SDS011;67235;45.638;11.714;2023-02-22T15:28:23;102.35;;;45.42;;
78027;SDS011;67235;45.638;11.714;2023-02-22T15:33:47;99.30;;;45.45;;
78027;SDS011;67235;45.638;11.714;2023-02-22T15:36:22;107.50;;;47.33;;
78027;SDS011;67235;45.638;11.714;2023-02-22T15:38:59;106.43;;;45.65;;
78027;SDS011;67235;45.638;11.714;2023-02-22T15:41:38;100.53;;;45.22;;
78027;SDS011;67235;45.638;11.714;2023-02-22T15:44:12;104.10;;;45.83;;
78027;SDS011;67235;45.638;11.714;2023-02-22T15:46:41;101.85;;;44.67;;
78027;SDS011;67235;45.638;11.714;2023-02-22T15:52:05;106.93;;;45.50;;
78027;SDS011;67235;45.638;11.714;2023-02-22T15:54:45;114.65;;;45.53;;
78027;SDS011;67235;45.638;11.714;2023-02-22T15:57:15;109.93;;;47.28;;
78027;SDS011;67235;45.638;11.714;2023-02-22T15:59:52;103.30;;;47.38;;
78027;SDS011;67235;45.638;11.714;2023-02-22T16:02:29;113.63;;;47.27;;
78027;SDS011;67235;45.638;11.714;2023-02-22T16:05:13;100.60;;;45.53;;
78027;SDS011;67235;45.638;11.714;2023-02-22T16:29:39;104.47;;;43.57;;
78027;SDS011;67235;45.638;11.714;2023-02-22T16:48:42;123.53;;;51.65;;
78027;SDS011;67235;45.638;11.714;2023-02-22T16:51:25;116.47;;;51.95;;
78027;SDS011;67235;45.638;11.714;2023-02-22T16:54:08;134.98;;;57.47;;
78027;SDS011;67235;45.638;11.714;2023-02-22T16:56:41;140.40;;;58.37;;
78027;SDS011;67235;45.638;11.714;2023-02-22T16:59:15;139.43;;;60.90;;
78027;SDS011;67235;45.638;11.714;2023-02-22T17:01:46;133.15;;;56.17;;
78027;SDS011;67235;45.638;11.714;2023-02-22T17:04:26;131.50;;;57.88;;
78027;SDS011;67235;45.638;11.714;2023-02-22T17:07:00;129.32;;;57.08;;
78027;SDS011;67235;45.638;11.714;2023-02-22T17:09:26;135.93;;;62.20;;
78027;SDS011;67235;45.638;11.714;2023-02-22T17:11:53;125.70;;;55.65;;
78027;SDS011;67235;45.638;11.714;2023-02-22T17:14:35;130.45;;;55.20;;
78027;SDS011;67235;45.638;11.714;2023-02-22T17:17:09;127.32;;;56.17;;
78027;SDS011;67235;45.638;11.714;2023-02-22T17:19:45;126.18;;;52.83;;
78027;SDS011;67235;45.638;11.714;2023-02-22T17:22:20;120.97;;;54.53;;
78027;SDS011;67235;45.638;11.714;2023-02-22T17:24:52;123.75;;;51.63;;
78027;SDS011;67235;45.638;11.714;2023-02-22T17:27:18;130.35;;;55.20;;
78027;SDS011;67235;45.638;11.714;2023-02-22T17:29:44;134.77;;;55.90;;
78027;SDS011;67235;45.638;11.714;2023-02-22T17:32:19;128.43;;;55.10;;
78027;SDS011;67235;45.638;11.714;2023-02-22T17:34:48;128.70;;;54.57;;
78027;SDS011;67235;45.638;11.714;2023-02-22T17:37:16;122.45;;;54.95;;
78027;SDS011;67235;45.638;11.714;2023-02-22T17:40:12;129.38;;;54.90;;
78027;SDS011;67235;45.638;11.714;2023-02-22T17:42:46;132.10;;;56.55;;
78027;SDS011;67235;45.638;11.714;2023-02-22T17:45:22;133.30;;;58.63;;
78027;SDS011;67235;45.638;11.714;2023-02-22T17:47:53;135.90;;;57.37;;
78027;SDS011;67235;45.638;11.714;2023-02-22T17:50:25;144.38;;;59.38;;
78027;SDS011;67235;45.638;11.714;2023-02-22T17:52:58;131.02;;;57.33;;
78027;SDS011;67235;45.638;11.714;2023-02-22T17:55:29;126.32;;;57.28;;
78027;SDS011;67235;45.638;11.714;2023-02-22T17:57:59;120.32;;;55.63;;
78027;SDS011;67235;45.638;11.714;2023-02-22T18:00:28;122.80;;;54.87;;
78027;SDS011;67235;45.638;11.714;2023-02-22T18:03:07;125.82;;;55.20;;
78027;SDS011;67235;45.638;11.714;2023-02-22T18:05:38;132.70;;;58.03;;
78027;SDS011;67235;45.638;11.714;2023-02-22T18:08:11;126.05;;;54.83;;
78027;SDS011;67235;45.638;11.714;2023-02-22T18:10:43;123.18;;;55.70;;
78027;SDS011;67235;45.638;11.714;2023-02-22T18:13:13;122.87;;;54.37;;
78027;SDS011;67235;45.638;11.714;2023-02-22T18:15:45;115.30;;;54.55;;
78027;SDS011;67235;45.638;11.714;2023-02-22T18:18:25;119.45;;;53.20;;
78027;SDS011;67235;45.638;11.714;2023-02-22T18:20:57;107.65;;;47.40;;
78027;SDS011;67235;45.638;11.714;2023-02-22T18:23:25;124.03;;;53.10;;
78027;SDS011;67235;45.638;11.714;2023-02-22T18:25:56;122.33;;;52.13;;
78027;SDS011;67235;45.638;11.714;2023-02-22T18:28:38;119.05;;;53.22;;
78027;SDS011;67235;45.638;11.714;2023-02-22T18:31:09;118.47;;;52.95;;
78027;SDS011;67235;45.638;11.714;2023-02-22T18:33:40;118.53;;;53.03;;
78027;SDS011;67235;45.638;11.714;2023-02-22T18:36:17;122.75;;;52.10;;
78027;SDS011;67235;45.638;11.714;2023-02-22T18:38:52;114.77;;;51.63;;
78027;SDS011;67235;45.638;11.714;2023-02-22T18:41:27;122.35;;;51.13;;
78027;SDS011;67235;45.638;11.714;2023-02-22T18:44:00;120.38;;;51.88;;
78027;SDS011;67235;45.638;11.714;2023-02-22T18:46:28;122.30;;;51.10;;
78027;SDS011;67235;45.638;11.714;2023-02-22T18:49:00;112.68;;;50.47;;
78027;SDS011;67235;45.638;11.714;2023-02-22T18:51:30;119.17;;;49.33;;
78027;SDS011;67235;45.638;11.714;2023-02-22T18:54:05;139.57;;;58.55;;
78027;SDS011;67235;45.638;11.714;2023-02-22T19:00:38;131.55;;;57.58;;